createdAt,value
2023-05-22T00:08:30.419Z,99565.52
2023-05-22T00:18:56.348Z,99564.69
2023-05-22T00:29:20.266Z,99556.69
2023-05-22T00:39:45.592Z,99557.82
2023-05-22T00:50:12.386Z,99555.31
2023-05-22T01:00:37.903Z,99554.67
2023-05-22T01:11:13.660Z,99557.38
2023-05-22T01:21:56.090Z,99564.69
2023-05-22T01:32:23.684Z,99563.95
2023-05-22T01:42:50.494Z,99562.36
2023-05-22T01:53:23.633Z,99567.94
2023-05-22T02:03:56.953Z,99570.20
2023-05-22T02:14:22.770Z,99566.58
2023-05-22T02:24:48.933Z,99562.77
2023-05-22T02:35:13.123Z,99559.11
2023-05-22T02:45:37.773Z,99549.36
2023-05-22T02:56:04.246Z,99549.41
2023-05-22T03:06:28.409Z,99542.01
2023-05-22T03:16:55.122Z,99544.09
2023-05-22T03:27:20.845Z,99544.13
2023-05-22T03:37:45.732Z,99538.46
2023-05-22T03:48:11.355Z,99537.59
2023-05-22T03:58:36.287Z,99542.58
2023-05-22T04:09:00.910Z,99542.34
2023-05-22T04:19:25.498Z,99538.30
2023-05-22T04:29:54.122Z,99537.75
2023-05-22T04:40:18.377Z,99545.69
2023-05-22T04:50:42.816Z,99544.88
2023-05-22T05:01:07.075Z,99544.98
2023-05-22T05:11:31.403Z,99531.38
2023-05-22T05:21:56.082Z,99537.23
2023-05-22T05:32:21.430Z,99539.02
2023-05-22T05:43:00.784Z,99535.60
2023-05-22T05:53:27.010Z,99541.03
2023-05-22T06:03:55.726Z,99543.42
2023-05-22T06:14:25.691Z,99548.09
2023-05-22T06:24:51.190Z,99544.17
2023-05-22T06:35:17.984Z,99542.91
2023-05-22T06:45:42.760Z,99536.52
2023-05-22T06:56:25.882Z,99539.48
2023-05-22T07:06:54.593Z,99539.91
2023-05-22T07:17:20.885Z,99534.88
2023-05-22T07:27:46.772Z,99531.11
2023-05-22T07:38:11.815Z,99528.83
2023-05-22T07:48:36.668Z,99525.77
2023-05-22T07:59:02.539Z,99525.25
2023-05-22T08:09:27.600Z,99519.95
2023-05-22T08:19:51.766Z,99517.20
2023-05-22T08:30:17.081Z,99511.89
2023-05-22T08:40:46.403Z,99511.20
2023-05-22T08:51:15.572Z,99512.84
2023-05-22T09:01:40.732Z,99500.79
2023-05-22T09:12:10.580Z,99501.11
2023-05-22T09:22:38.717Z,99497.91
2023-05-22T09:33:04.329Z,99495.61
2023-05-22T09:43:29.354Z,99495.90
2023-05-22T09:54:03.721Z,99487.84
2023-05-22T10:04:34.008Z,99483.61
2023-05-22T10:15:01.262Z,99473.73
2023-05-22T10:25:26.390Z,99464.74
2023-05-22T10:36:00.073Z,99462.70
2023-05-22T10:46:24.815Z,99459.28
2023-05-22T10:56:49.096Z,99448.49
2023-05-22T11:07:16.497Z,99443.19
2023-05-22T11:17:51.855Z,99445.08
2023-05-22T11:28:16.654Z,99441.00
2023-05-22T11:38:41.721Z,99431.98
2023-05-22T11:49:07.022Z,99416.67
2023-05-22T11:59:31.256Z,99411.05
2023-05-22T12:09:59.036Z,99407.89
2023-05-22T12:20:23.398Z,99399.38
2023-05-22T12:30:53.345Z,99394.41
2023-05-22T12:41:18.564Z,99390.17
2023-05-22T12:51:45.109Z,99382.92
2023-05-22T13:02:10.496Z,99375.27
2023-05-22T13:12:35.201Z,99371.33
2023-05-22T13:23:00.185Z,99363.73
2023-05-22T13:33:25.050Z,99357.67
2023-05-22T13:43:49.873Z,99354.77
2023-05-22T13:54:14.744Z,99352.47
2023-05-22T14:04:39.915Z,99340.42
2023-05-22T14:15:05.285Z,99329.62
2023-05-22T14:25:30.087Z,99315.09
2023-05-22T14:35:54.708Z,99310.92
2023-05-22T14:46:19.569Z,99305.23
2023-05-22T14:56:44.067Z,99290.89
2023-05-22T15:07:08.415Z,99290.55
2023-05-22T15:17:36.776Z,99289.20
2023-05-22T15:28:02.872Z,99286.61
2023-05-22T15:38:26.797Z,99280.55
2023-05-22T15:48:52.246Z,99264.59
2023-05-22T15:59:17.076Z,99254.88
2023-05-22T16:09:43.773Z,99242.45
2023-05-22T16:20:09.037Z,99237.02
2023-05-22T16:30:34.124Z,99229.55
2023-05-22T16:40:59.168Z,99232.17
2023-05-22T16:51:23.637Z,99225.80
2023-05-22T17:01:48.609Z,99225.42
2023-05-22T17:12:12.749Z,99221.88
2023-05-22T17:22:38.577Z,99216.34
2023-05-22T17:33:04.002Z,99220.35
2023-05-22T17:43:28.771Z,99219.90
2023-05-22T17:53:56.587Z,99212.52
2023-05-22T18:04:21.727Z,99210.44
2023-05-22T18:14:47.204Z,99206.92
2023-05-22T18:25:12.698Z,99202.48
2023-05-22T18:35:38.590Z,99195.62
2023-05-22T18:46:07.023Z,99194.59
2023-05-22T18:56:32.548Z,99196.23
2023-05-22T19:07:01.310Z,99194.77
2023-05-22T19:17:26.464Z,99204.33
2023-05-22T19:27:59.258Z,99203.86
2023-05-22T19:38:24.378Z,99204.60
2023-05-22T19:49:38.333Z,99206.56
2023-05-22T20:00:14.897Z,99203.96
2023-05-22T20:10:53.065Z,99201.36
2023-05-22T20:21:37.260Z,99192.95
2023-05-22T20:32:03.192Z,99188.09
2023-05-22T20:43:20.553Z,99195.80
2023-05-22T20:54:11.196Z,99195.84
2023-05-22T21:04:57.170Z,99195.20
2023-05-22T21:15:39.097Z,99198.58
2023-05-22T21:26:27.780Z,99194.04
2023-05-22T21:36:53.337Z,99182.32
2023-05-22T21:47:39.779Z,99172.85
2023-05-22T21:58:26.239Z,99169.42
2023-05-22T22:08:53.632Z,99161.39
2023-05-22T22:19:19.341Z,99153.83
2023-05-22T22:30:05.145Z,99142.15
2023-05-22T22:40:30.593Z,99134.20
2023-05-22T22:51:09.269Z,99134.88
2023-05-22T23:02:37.080Z,99130.92
2023-05-22T23:13:48.144Z,99118.08
2023-05-22T23:24:24.961Z,99109.14
2023-05-22T23:34:54.782Z,99092.91
2023-05-22T23:46:00.699Z,99087.61
2023-05-22T23:56:36.856Z,99083.55
